sensor_id;sensor_type;location;lat;lon;timestamp;pressure;altitude;pressure_sealevel;temperature;humidity
78483;BME280;67772;50.158;8.658;2023-04-01T00:01:42;98676.56;;;11.49;63.07
78483;BME280;67772;50.158;8.658;2023-04-01T00:04:07;98687.66;;;11.56;62.66
78483;BME280;67772;50.158;8.658;2023-04-01T00:06:33;98686.72;;;11.47;62.93
78483;BME280;67772;50.158;8.658;2023-04-01T00:08:58;98687.44;;;11.52;62.46
78483;BME280;67772;50.158;8.658;2023-04-01T00:11:23;98682.66;;;11.49;63.21
78483;BME280;67772;50.158;8.658;2023-04-01T00:13:48;98692.56;;;11.49;63.50
78483;BME280;67772;50.158;8.658;2023-04-01T00:16:14;98677.97;;;11.60;62.47
78483;BME280;67772;50.158;8.658;2023-04-01T00:18:40;98673.13;;;11.62;62.84
78483;BME280;67772;50.158;8.658;2023-04-01T00:21:06;98678.94;;;11.50;63.18
78483;BME280;67772;50.158;8.658;2023-04-01T00:23:31;98681.09;;;11.48;62.90
78483;BME280;67772;50.158;8.658;2023-04-01T00:25:59;98679.13;;;11.54;63.17
78483;BME280;67772;50.158;8.658;2023-04-01T00:28:26;98674.59;;;11.54;63.84
78483;BME280;67772;50.158;8.658;2023-04-01T00:30:51;98680.28;;;11.48;63.62
78483;BME280;67772;50.158;8.658;2023-04-01T00:33:17;98680.06;;;11.26;64.47
78483;BME280;67772;50.158;8.658;2023-04-01T00:35:42;98669.75;;;11.38;64.23
78483;BME280;67772;50.158;8.658;2023-04-01T00:38:07;98675.53;;;11.45;64.17
78483;BME280;67772;50.158;8.658;2023-04-01T00:40:34;98673.59;;;11.32;63.83
78483;BME280;67772;50.158;8.658;2023-04-01T00:43:00;98675.16;;;11.51;63.86
78483;BME280;67772;50.158;8.658;2023-04-01T00:45:33;98679.44;;;11.52;63.07
78483;BME280;67772;50.158;8.658;2023-04-01T00:48:05;98672.38;;;11.43;63.64
78483;BME280;67772;50.158;8.658;2023-04-01T00:50:31;98665.63;;;11.45;63.44
78483;BME280;67772;50.158;8.658;2023-04-01T00:53:00;98670.78;;;11.42;63.85
78483;BME280;67772;50.158;8.658;2023-04-01T00:55:27;98669.63;;;11.48;62.69
78483;BME280;67772;50.158;8.658;2023-04-01T00:57:55;98669.81;;;11.51;62.25
78483;BME280;67772;50.158;8.658;2023-04-01T01:00:22;98662.59;;;11.52;63.11
78483;BME280;67772;50.158;8.658;2023-04-01T01:02:49;98661.47;;;11.39;62.48
78483;BME280;67772;50.158;8.658;2023-04-01T01:05:16;98664.06;;;11.44;63.21
78483;BME280;67772;50.158;8.658;2023-04-01T01:11:04;98678.28;;;11.40;62.74
78483;BME280;67772;50.158;8.658;2023-04-01T01:13:36;98670.19;;;11.45;62.31
78483;BME280;67772;50.158;8.658;2023-04-01T01:16:25;98685.63;;;11.48;62.62
78483;BME280;67772;50.158;8.658;2023-04-01T01:22:15;98679.22;;;11.49;62.51
78483;BME280;67772;50.158;8.658;2023-04-01T01:27:21;98677.50;;;11.39;62.12
78483;BME280;67772;50.158;8.658;2023-04-01T01:32:52;98704.63;;;11.46;61.60
78483;BME280;67772;50.158;8.658;2023-04-01T01:37:46;98701.78;;;11.38;62.59
78483;BME280;67772;50.158;8.658;2023-04-01T01:40:15;98692.63;;;11.44;62.00
78483;BME280;67772;50.158;8.658;2023-04-01T01:42:47;98680.94;;;11.40;62.41
78483;BME280;67772;50.158;8.658;2023-04-01T01:45:16;98686.94;;;11.50;61.57
78483;BME280;67772;50.158;8.658;2023-04-01T01:47:43;98692.56;;;11.49;61.92
78483;BME280;67772;50.158;8.658;2023-04-01T01:50:10;98685.13;;;11.46;62.10
78483;BME280;67772;50.158;8.658;2023-04-01T01:52:36;98691.63;;;11.40;61.94
78483;BME280;67772;50.158;8.658;2023-04-01T01:55:03;98691.50;;;11.31;62.25
78483;BME280;67772;50.158;8.658;2023-04-01T01:57:31;98683.19;;;11.33;63.08
78483;BME280;67772;50.158;8.658;2023-04-01T01:59:59;98686.06;;;11.36;62.69
78483;BME280;67772;50.158;8.658;2023-04-01T02:02:26;98699.78;;;11.30;62.91
78483;BME280;67772;50.158;8.658;2023-04-01T02:04:56;98682.47;;;11.27;62.37
78483;BME280;67772;50.158;8.658;2023-04-01T02:07:25;98682.53;;;11.41;61.92
78483;BME280;67772;50.158;8.658;2023-04-01T02:09:52;98681.59;;;11.32;62.70
78483;BME280;67772;50.158;8.658;2023-04-01T02:12:19;98677.72;;;11.43;61.43
78483;BME280;67772;50.158;8.658;2023-04-01T02:14:52;98682.03;;;11.39;61.76
78483;BME280;67772;50.158;8.658;2023-04-01T02:17:24;98671.94;;;11.36;61.62
78483;BME280;67772;50.158;8.658;2023-04-01T02:20:14;98674.88;;;11.34;61.61
78483;BME280;67772;50.158;8.658;2023-04-01T02:22:47;98687.16;;;11.35;61.01
78483;BME280;67772;50.158;8.658;2023-04-01T02:25:17;98673.53;;;11.37;61.99
78483;BME280;67772;50.158;8.658;2023-04-01T02:27:44;98684.13;;;11.42;61.63
78483;BME280;67772;50.158;8.658;2023-04-01T02:30:15;98668.75;;;11.52;61.60
78483;BME280;67772;50.158;8.658;2023-04-01T02:32:42;98676.41;;;11.40;61.71
78483;BME280;67772;50.158;8.658;2023-04-01T02:35:12;98664.56;;;11.28;61.36
78483;BME280;67772;50.158;8.658;2023-04-01T02:37:39;98668.81;;;11.47;61.64
78483;BME280;67772;50.158;8.658;2023-04-01T02:40:09;98665.06;;;11.30;61.22
78483;BME280;67772;50.158;8.658;2023-04-01T02:42:35;98670.72;;;11.28;61.75
78483;BME280;67772;50.158;8.658;2023-04-01T02:45:01;98668.09;;;11.42;61.62
78483;BME280;67772;50.158;8.658;2023-04-01T02:47:26;98666.81;;;11.21;62.03
78483;BME280;67772;50.158;8.658;2023-04-01T02:49:51;98663.72;;;11.32;61.44
78483;BME280;67772;50.158;8.658;2023-04-01T02:52:26;98660.19;;;11.37;61.54
78483;BME280;67772;50.158;8.658;2023-04-01T02:54:52;98652.97;;;11.37;61.54
78483;BME280;67772;50.158;8.658;2023-04-01T02:57:18;98669.19;;;11.41;61.71
78483;BME280;67772;50.158;8.658;2023-04-01T02:59:43;98664.50;;;11.33;61.46
78483;BME280;67772;50.158;8.658;2023-04-01T03:02:09;98675.91;;;11.38;62.48
78483;BME280;67772;50.158;8.658;2023-04-01T03:04:34;98660.09;;;11.42;61.43
78483;BME280;67772;50.158;8.658;2023-04-01T03:07:00;98666.03;;;11.39;61.61
78483;BME280;67772;50.158;8.658;2023-04-01T03:09:25;98662.91;;;11.32;62.10
78483;BME280;67772;50.158;8.658;2023-04-01T03:11:51;98666.22;;;11.24;63.35
78483;BME280;67772;50.158;8.658;2023-04-01T03:14:16;98657.34;;;11.28;62.86
78483;BME280;67772;50.158;8.658;2023-04-01T03:16:41;98656.84;;;11.26;62.91
78483;BME280;67772;50.158;8.658;2023-04-01T03:19:07;98667.75;;;11.30;63.43
78483;BME280;67772;50.158;8.658;2023-04-01T03:21:32;98672.28;;;11.11;62.95
78483;BME280;67772;50.158;8.658;2023-04-01T03:23:57;98670.63;;;11.15;63.83
78483;BME280;67772;50.158;8.658;2023-04-01T03:26:24;98671.44;;;11.15;63.82
78483;BME280;67772;50.158;8.658;2023-04-01T03:28:49;98675.81;;;11.06;64.03
78483;BME280;67772;50.158;8.658;2023-04-01T03:31:15;98653.84;;;10.96;65.55
78483;BME280;67772;50.158;8.658;2023-04-01T03:33:41;98664.63;;;10.86;65.71
78483;BME280;67772;50.158;8.658;2023-04-01T03:36:07;98665.00;;;10.98;65.89
78483;BME280;67772;50.158;8.658;2023-04-01T03:38:33;98670.97;;;10.90;65.60
78483;BME280;67772;50.158;8.658;2023-04-01T03:40:59;98657.06;;;10.93;65.71
78483;BME280;67772;50.158;8.658;2023-04-01T03:43:24;98662.97;;;10.90;65.93
78483;BME280;67772;50.158;8.658;2023-04-01T03:45:51;98664.22;;;10.97;65.56
78483;BME280;67772;50.158;8.658;2023-04-01T03:48:17;98661.38;;;10.89;66.28
78483;BME280;67772;50.158;8.658;2023-04-01T03:50:43;98656.00;;;10.94;65.82
78483;BME280;67772;50.158;8.658;2023-04-01T03:53:08;98661.47;;;10.84;65.28
78483;BME280;67772;50.158;8.658;2023-04-01T03:55:35;98662.56;;;10.83;65.42
78483;BME280;67772;50.158;8.658;2023-04-01T03:58:01;98661.38;;;10.89;64.95
78483;BME280;67772;50.158;8.658;2023-04-01T04:00:30;98661.88;;;10.91;64.91
78483;BME280;67772;50.158;8.658;2023-04-01T04:02:55;98665.88;;;10.93;65.64
78483;BME280;67772;50.158;8.658;2023-04-01T04:05:24;98664.19;;;10.79;65.67
78483;BME280;67772;50.158;8.658;2023-04-01T04:07:51;98656.63;;;10.86;65.34
78483;BME280;67772;50.158;8.658;2023-04-01T04:10:17;98667.09;;;10.82;65.58
78483;BME280;67772;50.158;8.658;2023-04-01T04:12:42;98659.81;;;10.88;65.33
78483;BME280;67772;50.158;8.658;2023-04-01T04:15:08;98665.25;;;10.78;65.52
78483;BME280;67772;50.158;8.658;2023-04-01T04:17:34;98658.34;;;10.77;65.73
78483;BME280;67772;50.158;8.658;2023-04-01T04:19:59;98656.19;;;10.79;66.56
78483;BME280;67772;50.158;8.658;2023-04-01T04:22:24;98654.03;;;10.81;66.26
78483;BME280;67772;50.158;8.658;2023-04-01T04:24:50;98668.75;;;10.78;66.19
78483;BME280;67772;50.158;8.658;2023-04-01T04:27:15;98656.03;;;10.89;66.49
78483;BME280;67772;50.158;8.658;2023-04-01T04:29:40;98665.13;;;10.88;65.91
78483;BME280;67772;50.158;8.658;2023-04-01T04:32:06;98650.19;;;10.87;66.57
78483;BME280;67772;50.158;8.658;2023-04-01T04:34:32;98661.38;;;10.89;66.20
78483;BME280;67772;50.158;8.658;2023-04-01T04:36:57;98664.34;;;10.87;67.19
78483;BME280;67772;50.158;8.658;2023-04-01T04:39:22;98671.31;;;10.64;67.69
78483;BME280;67772;50.158;8.658;2023-04-01T04:41:47;98651.50;;;10.71;66.95
78483;BME280;67772;50.158;8.658;2023-04-01T04:44:13;98655.97;;;10.75;66.75
78483;BME280;67772;50.158;8.658;2023-04-01T04:46:38;98656.44;;;10.58;67.18
78483;BME280;67772;50.158;8.658;2023-04-01T04:49:05;98654.78;;;10.62;67.56
78483;BME280;67772;50.158;8.658;2023-04-01T04:51:30;98652.84;;;10.68;67.95
78483;BME280;67772;50.158;8.658;2023-04-01T04:53:59;98651.03;;;10.63;67.72
78483;BME280;67772;50.158;8.658;2023-04-01T04:56:24;98648.38;;;10.63;68.21
78483;BME280;67772;50.158;8.658;2023-04-01T04:58:51;98644.84;;;10.68;68.35
78483;BME280;67772;50.158;8.658;2023-04-01T05:01:17;98649.25;;;10.59;68.56
78483;BME280;67772;50.158;8.658;2023-04-01T05:03:43;98663.81;;;10.66;69.00
78483;BME280;67772;50.158;8.658;2023-04-01T05:06:10;98656.59;;;10.67;68.03
78483;BME280;67772;50.158;8.658;2023-04-01T05:08:36;98666.88;;;10.79;67.50
78483;BME280;67772;50.158;8.658;2023-04-01T05:11:03;98661.59;;;10.74;67.65
78483;BME280;67772;50.158;8.658;2023-04-01T05:13:31;98660.25;;;10.52;69.21
78483;BME280;67772;50.158;8.658;2023-04-01T05:15:56;98654.72;;;10.67;68.28
78483;BME280;67772;50.158;8.658;2023-04-01T05:18:22;98659.94;;;10.78;68.46
78483;BME280;67772;50.158;8.658;2023-04-01T05:20:52;98644.28;;;10.71;68.90
78483;BME280;67772;50.158;8.658;2023-04-01T05:23:19;98664.72;;;10.57;68.22
78483;BME280;67772;50.158;8.658;2023-04-01T05:25:46;98643.53;;;10.65;67.87
78483;BME280;67772;50.158;8.658;2023-04-01T05:28:12;98645.66;;;10.68;67.81
78483;BME280;67772;50.158;8.658;2023-04-01T05:30:40;98643.25;;;10.67;68.00
78483;BME280;67772;50.158;8.658;2023-04-01T05:33:07;98643.41;;;10.76;68.61
78483;BME280;67772;50.158;8.658;2023-04-01T05:35:32;98647.75;;;10.72;68.17
78483;BME280;67772;50.158;8.658;2023-04-01T05:37:57;98656.44;;;10.58;68.69
78483;BME280;67772;50.158;8.658;2023-04-01T05:40:23;98650.09;;;10.54;68.63
78483;BME280;67772;50.158;8.658;2023-04-01T05:42:48;98654.28;;;10.60;69.79
78483;BME280;67772;50.158;8.658;2023-04-01T05:45:14;98654.84;;;10.57;68.90
78483;BME280;67772;50.158;8.658;2023-04-01T05:47:41;98653.44;;;10.65;69.09
78483;BME280;67772;50.158;8.658;2023-04-01T05:50:08;98651.91;;;10.59;68.58
78483;BME280;67772;50.158;8.658;2023-04-01T05:52:33;98644.44;;;10.61;69.04
78483;BME280;67772;50.158;8.658;2023-04-01T05:54:58;98644.06;;;10.67;68.59
78483;BME280;67772;50.158;8.658;2023-04-01T05:57:25;98652.19;;;10.57;69.29
78483;BME280;67772;50.158;8.658;2023-04-01T05:59:50;98659.63;;;10.60;70.13
78483;BME280;67772;50.158;8.658;2023-04-01T06:02:17;98650.19;;;10.68;70.25
78483;BME280;67772;50.158;8.658;2023-04-01T06:04:42;98657.59;;;10.52;70.58
78483;BME280;67772;50.158;8.658;2023-04-01T06:07:12;98653.66;;;10.68;69.20
78483;BME280;67772;50.158;8.658;2023-04-01T06:09:38;98655.81;;;10.66;69.80
78483;BME280;67772;50.158;8.658;2023-04-01T06:12:08;98655.84;;;10.61;69.12
78483;BME280;67772;50.158;8.658;2023-04-01T06:20:11;98656.66;;;10.62;69.54
78483;BME280;67772;50.158;8.658;2023-04-01T06:22:53;98661.44;;;10.65;69.71
78483;BME280;67772;50.158;8.658;2023-04-01T06:25:37;98660.84;;;10.68;68.98
78483;BME280;67772;50.158;8.658;2023-04-01T06:40:18;98665.22;;;10.83;68.44
78483;BME280;67772;50.158;8.658;2023-04-01T06:45:28;98659.31;;;10.86;68.42
78483;BME280;67772;50.158;8.658;2023-04-01T06:53:23;98663.78;;;10.90;68.47
78483;BME280;67772;50.158;8.658;2023-04-01T06:55:53;98678.06;;;10.99;66.62
78483;BME280;67772;50.158;8.658;2023-04-01T06:58:21;98665.66;;;11.08;67.09
78483;BME280;67772;50.158;8.658;2023-04-01T07:00:50;98659.59;;;11.03;67.71
78483;BME280;67772;50.158;8.658;2023-04-01T07:03:21;98664.38;;;11.06;67.09
78483;BME280;67772;50.158;8.658;2023-04-01T07:05:48;98675.69;;;10.98;67.77
78483;BME280;67772;50.158;8.658;2023-04-01T07:08:21;98669.72;;;11.06;66.81
78483;BME280;67772;50.158;8.658;2023-04-01T07:13:41;98678.72;;;11.10;67.07
78483;BME280;67772;50.158;8.658;2023-04-01T07:16:17;98669.72;;;11.06;67.93
78483;BME280;67772;50.158;8.658;2023-04-01T07:21:35;98678.56;;;10.83;69.32
78483;BME280;67772;50.158;8.658;2023-04-01T07:24:06;98684.63;;;10.88;69.04
78483;BME280;67772;50.158;8.658;2023-04-01T07:26:35;98679.78;;;10.90;69.26
78483;BME280;67772;50.158;8.658;2023-04-01T07:29:00;98685.03;;;10.95;69.23
78483;BME280;67772;50.158;8.658;2023-04-01T07:34:25;98688.38;;;11.06;69.80
78483;BME280;67772;50.158;8.658;2023-04-01T07:37:00;98680.31;;;11.11;68.62
78483;BME280;67772;50.158;8.658;2023-04-01T07:44:48;98699.50;;;11.31;69.21
78483;BME280;67772;50.158;8.658;2023-04-01T07:47:34;98711.38;;;11.20;69.01
78483;BME280;67772;50.158;8.658;2023-04-01T07:50:21;98694.22;;;11.26;67.49
78483;BME280;67772;50.158;8.658;2023-04-01T07:52:56;98703.53;;;11.29;68.51
78483;BME280;67772;50.158;8.658;2023-04-01T08:01:20;98704.81;;;11.50;67.60
78483;BME280;67772;50.158;8.658;2023-04-01T08:04:05;98706.84;;;11.58;68.10
78483;BME280;67772;50.158;8.658;2023-04-01T08:06:55;98709.25;;;11.78;67.34
78483;BME280;67772;50.158;8.658;2023-04-01T08:09:38;98701.22;;;11.78;67.25
78483;BME280;67772;50.158;8.658;2023-04-01T08:17:43;98711.00;;;12.01;65.06
78483;BME280;67772;50.158;8.658;2023-04-01T08:22:49;98716.19;;;11.93;66.13
78483;BME280;67772;50.158;8.658;2023-04-01T08:25:26;98715.69;;;11.91;66.16
78483;BME280;67772;50.158;8.658;2023-04-01T08:28:01;98715.59;;;11.82;66.33
78483;BME280;67772;50.158;8.658;2023-04-01T08:35:54;98727.03;;;12.01;65.92
78483;BME280;67772;50.158;8.658;2023-04-01T08:38:27;98719.91;;;12.10;65.94
78483;BME280;67772;50.158;8.658;2023-04-01T08:41:10;98714.06;;;12.08;66.85
78483;BME280;67772;50.158;8.658;2023-04-01T08:46:52;98718.34;;;12.09;67.11
78483;BME280;67772;50.158;8.658;2023-04-01T08:52:27;98746.03;;;12.45;67.01
78483;BME280;67772;50.158;8.658;2023-04-01T09:07:03;98727.97;;;12.37;66.74
78483;BME280;67772;50.158;8.658;2023-04-01T09:14:58;98725.69;;;12.17;68.55
78483;BME280;67772;50.158;8.658;2023-04-01T09:25:33;98737.22;;;12.31;67.49
78483;BME280;67772;50.158;8.658;2023-04-01T09:44:33;98730.50;;;13.02;66.65
78483;BME280;67772;50.158;8.658;2023-04-01T09:53:08;98748.34;;;12.93;66.63
78483;BME280;67772;50.158;8.658;2023-04-01T10:01:09;98760.41;;;12.77;67.61
78483;BME280;67772;50.158;8.658;2023-04-01T10:04:06;98765.69;;;12.68;68.85
78483;BME280;67772;50.158;8.658;2023-04-01T10:07:07;98759.72;;;12.71;69.56
78483;BME280;67772;50.158;8.658;2023-04-01T10:18:09;98760.41;;;12.90;68.73
78483;BME280;67772;50.158;8.658;2023-04-01T10:23:21;98770.91;;;12.60;70.08
78483;BME280;67772;50.158;8.658;2023-04-01T10:39:37;98771.69;;;12.47;71.13
78483;BME280;67772;50.158;8.658;2023-04-01T11:01:40;98763.19;;;12.72;71.11
78483;BME280;67772;50.158;8.658;2023-04-01T11:33:57;98773.59;;;13.27;69.10
78483;BME280;67772;50.158;8.658;2023-04-01T11:44:58;98778.56;;;13.34;68.87
78483;BME280;67772;50.158;8.658;2023-04-01T11:55:31;98780.22;;;13.57;67.99
78483;BME280;67772;50.158;8.658;2023-04-01T11:58:16;98782.84;;;13.35;68.72
78483;BME280;67772;50.158;8.658;2023-04-01T12:00:59;98791.78;;;13.17;68.31
78483;BME280;67772;50.158;8.658;2023-04-01T12:06:48;98799.31;;;13.15;69.28
78483;BME280;67772;50.158;8.658;2023-04-01T12:23:09;98814.91;;;12.67;72.58
78483;BME280;67772;50.158;8.658;2023-04-01T12:43:55;98812.16;;;12.72;72.43
78483;BME280;67772;50.158;8.658;2023-04-01T12:57:22;98827.09;;;12.73;73.82
78483;BME280;67772;50.158;8.658;2023-04-01T13:07:55;98838.00;;;12.77;73.46
78483;BME280;67772;50.158;8.658;2023-04-01T13:16:14;98843.34;;;13.09;72.97
78483;BME280;67772;50.158;8.658;2023-04-01T13:23:56;98839.28;;;13.25;72.92
78483;BME280;67772;50.158;8.658;2023-04-01T13:29:20;98835.78;;;13.52;71.21
78483;BME280;67772;50.158;8.658;2023-04-01T13:32:17;98845.63;;;13.56;71.98
78483;BME280;67772;50.158;8.658;2023-04-01T13:45:23;98841.25;;;14.32;69.69
78483;BME280;67772;50.158;8.658;2023-04-01T13:56:37;98858.78;;;14.82;65.78
78483;BME280;67772;50.158;8.658;2023-04-01T14:04:53;98869.06;;;14.36;66.93
78483;BME280;67772;50.158;8.658;2023-04-01T14:12:57;98855.53;;;14.05;68.85
78483;BME280;67772;50.158;8.658;2023-04-01T14:23:59;98859.63;;;14.25;67.38
78483;BME280;67772;50.158;8.658;2023-04-01T14:32:06;98872.00;;;14.78;65.76
78483;BME280;67772;50.158;8.658;2023-04-01T14:34:44;98867.59;;;14.74;66.78
78483;BME280;67772;50.158;8.658;2023-04-01T14:37:31;98864.59;;;14.75;66.29
78483;BME280;67772;50.158;8.658;2023-04-01T14:40:26;98868.00;;;14.98;66.22
78483;BME280;67772;50.158;8.658;2023-04-01T14:43:07;98874.59;;;14.83;65.74
78483;BME280;67772;50.158;8.658;2023-04-01T14:45:46;98866.53;;;14.83;65.92
78483;BME280;67772;50.158;8.658;2023-04-01T14:48:32;98884.50;;;15.05;65.53
78483;BME280;67772;50.158;8.658;2023-04-01T14:51:21;98878.09;;;14.62;66.63
78483;BME280;67772;50.158;8.658;2023-04-01T14:56:44;98875.50;;;14.57;66.00
78483;BME280;67772;50.158;8.658;2023-04-01T14:59:17;98888.13;;;14.34;66.88
78483;BME280;67772;50.158;8.658;2023-04-01T15:18:44;98903.25;;;14.16;66.10
78483;BME280;67772;50.158;8.658;2023-04-01T15:21:18;98894.88;;;13.96;66.00
78483;BME280;67772;50.158;8.658;2023-04-01T15:29:38;98917.25;;;13.78;67.33
78483;BME280;67772;50.158;8.658;2023-04-01T15:35:00;98926.88;;;13.65;67.67
78483;BME280;67772;50.158;8.658;2023-04-01T15:40:19;98934.31;;;13.41;68.29
78483;BME280;67772;50.158;8.658;2023-04-01T15:42:59;98957.81;;;13.44;68.78
78483;BME280;67772;50.158;8.658;2023-04-01T15:53:47;98948.81;;;13.67;66.81
78483;BME280;67772;50.158;8.658;2023-04-01T16:02:19;98952.47;;;13.58;68.22
78483;BME280;67772;50.158;8.658;2023-04-01T16:05:31;98954.34;;;13.57;68.13
78483;BME280;67772;50.158;8.658;2023-04-01T16:23:48;98956.81;;;13.40;68.48
78483;BME280;67772;50.158;8.658;2023-04-01T16:26:20;98960.50;;;13.30;68.15
78483;BME280;67772;50.158;8.658;2023-04-01T16:29:05;98960.91;;;13.51;67.70
78483;BME280;67772;50.158;8.658;2023-04-01T16:31:49;98973.09;;;13.57;68.68
78483;BME280;67772;50.158;8.658;2023-04-01T16:34:21;98976.09;;;13.56;68.36
78483;BME280;67772;50.158;8.658;2023-04-01T16:37:00;98978.97;;;13.73;67.59
78483;BME280;67772;50.158;8.658;2023-04-01T16:39:59;98985.81;;;13.65;67.41
78483;BME280;67772;50.158;8.658;2023-04-01T16:42:50;98987.91;;;13.55;67.20
78483;BME280;67772;50.158;8.658;2023-04-01T16:45:21;98994.97;;;13.64;67.56
78483;BME280;67772;50.158;8.658;2023-04-01T16:50:23;99000.50;;;13.54;67.57
78483;BME280;67772;50.158;8.658;2023-04-01T16:53:08;99001.06;;;13.51;68.42
78483;BME280;67772;50.158;8.658;2023-04-01T16:58:22;98999.06;;;13.43;68.76
78483;BME280;67772;50.158;8.658;2023-04-01T17:00:51;99005.13;;;13.35;69.56
78483;BME280;67772;50.158;8.658;2023-04-01T17:03:31;99015.25;;;13.38;68.63
78483;BME280;67772;50.158;8.658;2023-04-01T17:06:11;99020.09;;;13.36;68.81
78483;BME280;67772;50.158;8.658;2023-04-01T17:20:03;99033.34;;;12.77;69.91
78483;BME280;67772;50.158;8.658;2023-04-01T17:22:45;99041.25;;;12.68;70.49
78483;BME280;67772;50.158;8.658;2023-04-01T17:25:35;99048.31;;;12.59;70.55
78483;BME280;67772;50.158;8.658;2023-04-01T17:30:48;99032.50;;;12.63;71.35
78483;BME280;67772;50.158;8.658;2023-04-01T17:33:47;99044.91;;;12.54;71.78
78483;BME280;67772;50.158;8.658;2023-04-01T17:36:39;99059.22;;;12.44;72.59
78483;BME280;67772;50.158;8.658;2023-04-01T17:39:45;99069.47;;;12.37;72.68
78483;BME280;67772;50.158;8.658;2023-04-01T17:42:22;99067.84;;;12.17;72.89
78483;BME280;67772;50.158;8.658;2023-04-01T17:45:00;99075.75;;;12.27;73.31
78483;BME280;67772;50.158;8.658;2023-04-01T17:47:31;99081.31;;;12.31;73.20
78483;BME280;67772;50.158;8.658;2023-04-01T17:52:52;99088.66;;;12.20;73.26
78483;BME280;67772;50.158;8.658;2023-04-01T18:03:54;99105.53;;;12.16;72.70
78483;BME280;67772;50.158;8.658;2023-04-01T18:06:29;99114.44;;;12.11;72.62
78483;BME280;67772;50.158;8.658;2023-04-01T18:20:40;99131.50;;;12.15;72.39
78483;BME280;67772;50.158;8.658;2023-04-01T18:23:22;99144.97;;;12.05;nan
78483;BME280;67772;50.158;8.658;2023-04-01T18:26:02;99146.31;;;12.03;73.46
78483;BME280;67772;50.158;8.658;2023-04-01T18:28:43;99166.50;;;11.90;73.65
78483;BME280;67772;50.158;8.658;2023-04-01T18:31:18;99170.97;;;11.95;73.12
78483;BME280;67772;50.158;8.658;2023-04-01T18:33:46;99172.59;;;11.91;73.19
78483;BME280;67772;50.158;8.658;2023-04-01T18:39:19;99179.28;;;11.93;73.38
78483;BME280;67772;50.158;8.658;2023-04-01T18:42:16;99176.09;;;11.91;72.63
78483;BME280;67772;50.158;8.658;2023-04-01T18:52:36;99196.22;;;11.79;73.14
78483;BME280;67772;50.158;8.658;2023-04-01T18:57:50;99205.13;;;11.69;74.30
78483;BME280;67772;50.158;8.658;2023-04-01T19:00:38;99213.25;;;11.88;72.97
78483;BME280;67772;50.158;8.658;2023-04-01T19:03:16;99217.00;;;11.87;73.13
78483;BME280;67772;50.158;8.658;2023-04-01T19:05:47;99222.50;;;12.00;73.34
78483;BME280;67772;50.158;8.658;2023-04-01T19:08:38;99217.66;;;11.74;72.81
78483;BME280;67772;50.158;8.658;2023-04-01T19:11:17;99226.34;;;11.89;72.94
78483;BME280;67772;50.158;8.658;2023-04-01T19:19:21;99232.78;;;11.83;72.80
78483;BME280;67772;50.158;8.658;2023-04-01T19:21:56;99236.03;;;11.80;72.64
78483;BME280;67772;50.158;8.658;2023-04-01T19:24:50;99233.38;;;11.80;72.38
78483;BME280;67772;50.158;8.658;2023-04-01T19:27:34;99239.78;;;11.79;72.37
78483;BME280;67772;50.158;8.658;2023-04-01T19:38:03;99248.47;;;11.56;72.86
78483;BME280;67772;50.158;8.658;2023-04-01T19:46:14;99256.38;;;11.76;71.68
78483;BME280;67772;50.158;8.658;2023-04-01T19:51:34;99264.19;;;11.57;72.33
78483;BME280;67772;50.158;8.658;2023-04-01T19:57:38;99267.66;;;11.68;71.76
78483;BME280;67772;50.158;8.658;2023-04-01T19:59:48;99269.22;;;11.69;71.30
78483;BME280;67772;50.158;8.658;2023-04-01T20:04:47;99277.00;;;11.71;71.59
78483;BME280;67772;50.158;8.658;2023-04-01T20:07:31;99280.47;;;11.66;71.70
78483;BME280;67772;50.158;8.658;2023-04-01T20:10:10;99283.19;;;11.56;72.11
78483;BME280;67772;50.158;8.658;2023-04-01T20:13:13;99282.41;;;11.50;71.63
78483;BME280;67772;50.158;8.658;2023-04-01T20:15:45;99297.34;;;11.56;71.64
78483;BME280;67772;50.158;8.658;2023-04-01T20:18:23;99293.63;;;11.47;71.62
78483;BME280;67772;50.158;8.658;2023-04-01T20:20:56;99299.53;;;11.44;71.60
78483;BME280;67772;50.158;8.658;2023-04-01T20:23:34;99313.16;;;11.43;71.69
78483;BME280;67772;50.158;8.658;2023-04-01T20:26:08;99322.22;;;11.42;72.50
78483;BME280;67772;50.158;8.658;2023-04-01T20:28:56;99329.44;;;11.41;71.37
78483;BME280;67772;50.158;8.658;2023-04-01T20:31:35;99331.00;;;11.47;71.07
78483;BME280;67772;50.158;8.658;2023-04-01T20:53:29;99354.28;;;11.42;72.89
78483;BME280;67772;50.158;8.658;2023-04-01T20:58:54;99359.63;;;11.42;73.21
78483;BME280;67772;50.158;8.658;2023-04-01T21:07:34;99365.03;;;11.27;74.41
78483;BME280;67772;50.158;8.658;2023-04-01T21:10:37;99371.91;;;11.43;73.72
78483;BME280;67772;50.158;8.658;2023-04-01T21:21:42;99377.31;;;11.23;74.31
78483;BME280;67772;50.158;8.658;2023-04-01T21:30:29;99398.66;;;11.23;74.59
78483;BME280;67772;50.158;8.658;2023-04-01T21:33:08;99398.69;;;11.03;75.42
78483;BME280;67772;50.158;8.658;2023-04-01T21:36:03;99409.09;;;11.04;74.79
78483;BME280;67772;50.158;8.658;2023-04-01T21:44:47;99418.47;;;10.92;76.22
78483;BME280;67772;50.158;8.658;2023-04-01T21:58:49;99429.13;;;10.87;76.36
78483;BME280;67772;50.158;8.658;2023-04-01T22:07:19;99440.06;;;11.05;75.23
78483;BME280;67772;50.158;8.658;2023-04-01T22:12:35;99435.53;;;11.16;74.01
78483;BME280;67772;50.158;8.658;2023-04-01T22:20:10;99446.75;;;11.08;74.64
78483;BME280;67772;50.158;8.658;2023-04-01T22:25:40;99450.47;;;10.87;75.07
78483;BME280;67772;50.158;8.658;2023-04-01T22:28:19;99452.63;;;11.10;74.19
78483;BME280;67772;50.158;8.658;2023-04-01T22:30:52;99456.63;;;10.92;75.47
78483;BME280;67772;50.158;8.658;2023-04-01T22:41:18;99457.41;;;10.93;75.75
78483;BME280;67772;50.158;8.658;2023-04-01T22:43:47;99467.81;;;11.09;74.96
78483;BME280;67772;50.158;8.658;2023-04-01T22:46:20;99462.22;;;11.06;74.19
78483;BME280;67772;50.158;8.658;2023-04-01T22:48:56;99472.09;;;11.15;75.19
78483;BME280;67772;50.158;8.658;2023-04-01T22:51:42;99471.81;;;11.07;74.77
78483;BME280;67772;50.158;8.658;2023-04-01T22:56:57;99481.44;;;10.78;76.05